sensor_id;sensor_type;location;lat;lon;timestamp;P1;durP1;ratioP1;P2;durP2;ratioP2
1402;SDS011;696;48.546;9.896;2024-01-16T00:01:14;0.50;;;0.50;;
1402;SDS011;696;48.546;9.896;2024-01-16T00:03:41;0.50;;;0.50;;
1402;SDS011;696;48.546;9.896;2024-01-16T00:06:06;0.60;;;0.60;;
1402;SDS011;696;48.546;9.896;2024-01-16T00:08:32;0.52;;;0.52;;
1402;SDS011;696;48.546;9.896;2024-01-16T00:10:57;0.60;;;0.60;;
1402;SDS011;696;48.546;9.896;2024-01-16T00:13:23;0.60;;;0.60;;
1402;SDS011;696;48.546;9.896;2024-01-16T00:15:48;0.50;;;0.50;;
1402;SDS011;696;48.546;9.896;2024-01-16T00:18:14;0.60;;;0.60;;
1402;SDS011;696;48.546;9.896;2024-01-16T00:20:40;0.40;;;0.40;;
1402;SDS011;696;48.546;9.896;2024-01-16T00:23:05;0.60;;;0.60;;
1402;SDS011;696;48.546;9.896;2024-01-16T00:25:31;0.50;;;0.50;;
1402;SDS011;696;48.546;9.896;2024-01-16T00:27:56;0.50;;;0.50;;
1402;SDS011;696;48.546;9.896;2024-01-16T00:30:21;0.60;;;0.60;;
1402;SDS011;696;48.546;9.896;2024-01-16T00:32:47;0.50;;;0.50;;
1402;SDS011;696;48.546;9.896;2024-01-16T00:35:12;0.50;;;0.50;;
1402;SDS011;696;48.546;9.896;2024-01-16T00:37:37;0.63;;;0.63;;
1402;SDS011;696;48.546;9.896;2024-01-16T00:40:03;0.60;;;0.60;;
1402;SDS011;696;48.546;9.896;2024-01-16T00:42:30;0.52;;;0.52;;
1402;SDS011;696;48.546;9.896;2024-01-16T00:44:56;0.52;;;0.52;;
1402;SDS011;696;48.546;9.896;2024-01-16T00:47:22;0.60;;;0.60;;
1402;SDS011;696;48.546;9.896;2024-01-16T00:49:47;0.47;;;0.47;;
1402;SDS011;696;48.546;9.896;2024-01-16T00:52:12;0.60;;;0.60;;
1402;SDS011;696;48.546;9.896;2024-01-16T00:54:38;0.50;;;0.50;;
1402;SDS011;696;48.546;9.896;2024-01-16T00:57:04;0.60;;;0.60;;
1402;SDS011;696;48.546;9.896;2024-01-16T00:59:29;0.50;;;0.50;;
1402;SDS011;696;48.546;9.896;2024-01-16T01:01:56;0.50;;;0.50;;
1402;SDS011;696;48.546;9.896;2024-01-16T01:04:21;0.43;;;0.43;;
1402;SDS011;696;48.546;9.896;2024-01-16T01:06:46;0.60;;;0.60;;
1402;SDS011;696;48.546;9.896;2024-01-16T01:09:12;0.50;;;0.50;;
1402;SDS011;696;48.546;9.896;2024-01-16T01:11:38;0.50;;;0.50;;
1402;SDS011;696;48.546;9.896;2024-01-16T01:14:04;0.50;;;0.50;;
1402;SDS011;696;48.546;9.896;2024-01-16T01:16:29;0.52;;;0.52;;
1402;SDS011;696;48.546;9.896;2024-01-16T01:18:54;0.50;;;0.50;;
1402;SDS011;696;48.546;9.896;2024-01-16T01:21:20;0.60;;;0.60;;
1402;SDS011;696;48.546;9.896;2024-01-16T01:23:45;0.60;;;0.60;;
1402;SDS011;696;48.546;9.896;2024-01-16T01:26:11;0.57;;;0.57;;
1402;SDS011;696;48.546;9.896;2024-01-16T01:28:39;0.60;;;0.60;;
1402;SDS011;696;48.546;9.896;2024-01-16T01:31:05;0.50;;;0.50;;
1402;SDS011;696;48.546;9.896;2024-01-16T01:33:30;0.50;;;0.50;;
1402;SDS011;696;48.546;9.896;2024-01-16T01:35:56;0.45;;;0.45;;
1402;SDS011;696;48.546;9.896;2024-01-16T01:38:21;0.63;;;0.63;;
1402;SDS011;696;48.546;9.896;2024-01-16T01:40:46;0.60;;;0.60;;
1402;SDS011;696;48.546;9.896;2024-01-16T01:48:43;0.50;;;0.50;;
1402;SDS011;696;48.546;9.896;2024-01-16T01:51:12;0.60;;;0.60;;
1402;SDS011;696;48.546;9.896;2024-01-16T01:53:39;0.50;;;0.50;;
1402;SDS011;696;48.546;9.896;2024-01-16T01:56:13;0.60;;;0.60;;
1402;SDS011;696;48.546;9.896;2024-01-16T01:58:40;0.50;;;0.50;;
1402;SDS011;696;48.546;9.896;2024-01-16T02:01:06;0.50;;;0.50;;
1402;SDS011;696;48.546;9.896;2024-01-16T02:03:32;0.50;;;0.50;;
1402;SDS011;696;48.546;9.896;2024-01-16T02:06:00;0.55;;;0.55;;
1402;SDS011;696;48.546;9.896;2024-01-16T02:08:26;0.50;;;0.50;;
1402;SDS011;696;48.546;9.896;2024-01-16T02:10:52;0.60;;;0.60;;
1402;SDS011;696;48.546;9.896;2024-01-16T02:13:18;0.55;;;0.55;;
1402;SDS011;696;48.546;9.896;2024-01-16T02:15:46;0.52;;;0.52;;
1402;SDS011;696;48.546;9.896;2024-01-16T02:18:11;0.45;;;0.45;;
1402;SDS011;696;48.546;9.896;2024-01-16T02:20:36;0.60;;;0.60;;
1402;SDS011;696;48.546;9.896;2024-01-16T02:23:03;0.60;;;0.60;;
1402;SDS011;696;48.546;9.896;2024-01-16T02:25:29;0.50;;;0.50;;
1402;SDS011;696;48.546;9.896;2024-01-16T02:27:54;0.57;;;0.57;;
1402;SDS011;696;48.546;9.896;2024-01-16T02:30:20;0.50;;;0.50;;
1402;SDS011;696;48.546;9.896;2024-01-16T02:32:45;0.50;;;0.50;;
1402;SDS011;696;48.546;9.896;2024-01-16T02:35:11;0.60;;;0.60;;
1402;SDS011;696;48.546;9.896;2024-01-16T02:37:36;0.55;;;0.55;;
1402;SDS011;696;48.546;9.896;2024-01-16T02:40:01;0.60;;;0.60;;
1402;SDS011;696;48.546;9.896;2024-01-16T02:42:31;0.60;;;0.60;;
1402;SDS011;696;48.546;9.896;2024-01-16T02:44:59;0.50;;;0.50;;
1402;SDS011;696;48.546;9.896;2024-01-16T02:47:24;0.60;;;0.60;;
1402;SDS011;696;48.546;9.896;2024-01-16T02:49:50;0.52;;;0.52;;
1402;SDS011;696;48.546;9.896;2024-01-16T02:52:15;0.60;;;0.60;;
1402;SDS011;696;48.546;9.896;2024-01-16T02:54:41;0.50;;;0.50;;
1402;SDS011;696;48.546;9.896;2024-01-16T02:57:06;0.50;;;0.50;;
1402;SDS011;696;48.546;9.896;2024-01-16T02:59:31;0.60;;;0.60;;
1402;SDS011;696;48.546;9.896;2024-01-16T03:01:57;0.70;;;0.70;;
1402;SDS011;696;48.546;9.896;2024-01-16T03:04:22;0.50;;;0.50;;
1402;SDS011;696;48.546;9.896;2024-01-16T03:06:48;0.60;;;0.60;;
1402;SDS011;696;48.546;9.896;2024-01-16T03:09:13;0.65;;;0.65;;
1402;SDS011;696;48.546;9.896;2024-01-16T03:11:38;0.60;;;0.60;;
1402;SDS011;696;48.546;9.896;2024-01-16T03:14:04;0.60;;;0.60;;
1402;SDS011;696;48.546;9.896;2024-01-16T03:16:30;0.70;;;0.70;;
1402;SDS011;696;48.546;9.896;2024-01-16T03:18:56;0.60;;;0.60;;
1402;SDS011;696;48.546;9.896;2024-01-16T03:21:22;0.60;;;0.60;;
1402;SDS011;696;48.546;9.896;2024-01-16T03:23:47;0.60;;;0.60;;
1402;SDS011;696;48.546;9.896;2024-01-16T03:26:13;0.60;;;0.60;;
1402;SDS011;696;48.546;9.896;2024-01-16T03:28:39;0.60;;;0.60;;
1402;SDS011;696;48.546;9.896;2024-01-16T03:31:04;0.60;;;0.60;;
1402;SDS011;696;48.546;9.896;2024-01-16T03:33:30;0.70;;;0.70;;
1402;SDS011;696;48.546;9.896;2024-01-16T03:35:55;0.65;;;0.65;;
1402;SDS011;696;48.546;9.896;2024-01-16T03:38:21;0.73;;;0.73;;
1402;SDS011;696;48.546;9.896;2024-01-16T03:40:46;0.60;;;0.60;;
1402;SDS011;696;48.546;9.896;2024-01-16T03:43:11;0.60;;;0.60;;
1402;SDS011;696;48.546;9.896;2024-01-16T03:45:37;0.60;;;0.60;;
1402;SDS011;696;48.546;9.896;2024-01-16T03:48:02;0.70;;;0.70;;
1402;SDS011;696;48.546;9.896;2024-01-16T03:50:30;0.52;;;0.52;;
1402;SDS011;696;48.546;9.896;2024-01-16T03:52:55;0.65;;;0.65;;
1402;SDS011;696;48.546;9.896;2024-01-16T03:55:21;0.77;;;0.77;;
1402;SDS011;696;48.546;9.896;2024-01-16T03:57:46;0.70;;;0.70;;
1402;SDS011;696;48.546;9.896;2024-01-16T04:00:11;0.60;;;0.60;;
1402;SDS011;696;48.546;9.896;2024-01-16T04:02:37;0.75;;;0.75;;
1402;SDS011;696;48.546;9.896;2024-01-16T04:05:04;0.60;;;0.60;;
1402;SDS011;696;48.546;9.896;2024-01-16T04:07:29;0.70;;;0.70;;
1402;SDS011;696;48.546;9.896;2024-01-16T04:09:55;0.60;;;0.60;;
1402;SDS011;696;48.546;9.896;2024-01-16T04:12:20;0.80;;;0.80;;
1402;SDS011;696;48.546;9.896;2024-01-16T04:14:45;0.80;;;0.80;;
1402;SDS011;696;48.546;9.896;2024-01-16T04:17:11;0.80;;;0.80;;
1402;SDS011;696;48.546;9.896;2024-01-16T04:19:36;0.70;;;0.70;;
1402;SDS011;696;48.546;9.896;2024-01-16T04:22:01;0.60;;;0.60;;
1402;SDS011;696;48.546;9.896;2024-01-16T04:24:27;0.70;;;0.70;;
1402;SDS011;696;48.546;9.896;2024-01-16T04:26:52;0.70;;;0.70;;
1402;SDS011;696;48.546;9.896;2024-01-16T04:29:18;0.80;;;0.80;;
1402;SDS011;696;48.546;9.896;2024-01-16T04:31:43;0.80;;;0.80;;
1402;SDS011;696;48.546;9.896;2024-01-16T04:34:09;0.70;;;0.70;;
1402;SDS011;696;48.546;9.896;2024-01-16T04:36:34;0.70;;;0.70;;
1402;SDS011;696;48.546;9.896;2024-01-16T04:38:59;0.60;;;0.60;;
1402;SDS011;696;48.546;9.896;2024-01-16T04:41:25;0.80;;;0.80;;
1402;SDS011;696;48.546;9.896;2024-01-16T04:43:50;0.80;;;0.80;;
1402;SDS011;696;48.546;9.896;2024-01-16T04:46:15;0.80;;;0.80;;
1402;SDS011;696;48.546;9.896;2024-01-16T04:48:41;0.70;;;0.70;;
1402;SDS011;696;48.546;9.896;2024-01-16T04:51:07;0.73;;;0.73;;
1402;SDS011;696;48.546;9.896;2024-01-16T04:53:33;0.70;;;0.70;;
1402;SDS011;696;48.546;9.896;2024-01-16T04:55:58;0.75;;;0.75;;
1402;SDS011;696;48.546;9.896;2024-01-16T04:58:24;0.70;;;0.70;;
1402;SDS011;696;48.546;9.896;2024-01-16T05:00:49;0.80;;;0.80;;
1402;SDS011;696;48.546;9.896;2024-01-16T05:03:14;0.73;;;0.73;;
1402;SDS011;696;48.546;9.896;2024-01-16T05:05:40;0.70;;;0.70;;
1402;SDS011;696;48.546;9.896;2024-01-16T05:08:05;0.88;;;0.88;;
1402;SDS011;696;48.546;9.896;2024-01-16T05:10:30;0.77;;;0.77;;
1402;SDS011;696;48.546;9.896;2024-01-16T05:12:56;0.75;;;0.75;;
1402;SDS011;696;48.546;9.896;2024-01-16T05:15:21;0.80;;;0.80;;
1402;SDS011;696;48.546;9.896;2024-01-16T05:17:47;0.93;;;0.93;;
1402;SDS011;696;48.546;9.896;2024-01-16T05:20:12;0.80;;;0.80;;
1402;SDS011;696;48.546;9.896;2024-01-16T05:22:37;0.80;;;0.80;;
1402;SDS011;696;48.546;9.896;2024-01-16T05:25:06;0.80;;;0.80;;
1402;SDS011;696;48.546;9.896;2024-01-16T05:27:35;0.80;;;0.80;;
1402;SDS011;696;48.546;9.896;2024-01-16T05:30:00;0.73;;;0.73;;
1402;SDS011;696;48.546;9.896;2024-01-16T05:32:26;0.75;;;0.75;;
1402;SDS011;696;48.546;9.896;2024-01-16T05:34:51;0.77;;;0.77;;
1402;SDS011;696;48.546;9.896;2024-01-16T05:37:17;0.80;;;0.80;;
1402;SDS011;696;48.546;9.896;2024-01-16T05:39:43;0.80;;;0.80;;
1402;SDS011;696;48.546;9.896;2024-01-16T05:42:08;0.80;;;0.80;;
1402;SDS011;696;48.546;9.896;2024-01-16T05:44:34;0.70;;;0.70;;
1402;SDS011;696;48.546;9.896;2024-01-16T05:46:59;0.80;;;0.80;;
1402;SDS011;696;48.546;9.896;2024-01-16T05:49:25;0.73;;;0.73;;
1402;SDS011;696;48.546;9.896;2024-01-16T05:51:50;0.70;;;0.70;;
1402;SDS011;696;48.546;9.896;2024-01-16T05:54:15;0.75;;;0.75;;
1402;SDS011;696;48.546;9.896;2024-01-16T05:56:41;0.80;;;0.80;;
1402;SDS011;696;48.546;9.896;2024-01-16T05:59:06;0.80;;;0.80;;
1402;SDS011;696;48.546;9.896;2024-01-16T06:01:32;0.80;;;0.80;;
1402;SDS011;696;48.546;9.896;2024-01-16T06:03:57;0.77;;;0.77;;
1402;SDS011;696;48.546;9.896;2024-01-16T06:06:24;0.73;;;0.73;;
1402;SDS011;696;48.546;9.896;2024-01-16T06:08:49;0.70;;;0.70;;
1402;SDS011;696;48.546;9.896;2024-01-16T06:11:15;0.70;;;0.70;;
1402;SDS011;696;48.546;9.896;2024-01-16T06:13:40;0.60;;;0.60;;
1402;SDS011;696;48.546;9.896;2024-01-16T06:16:06;0.80;;;0.80;;
1402;SDS011;696;48.546;9.896;2024-01-16T06:18:33;0.73;;;0.73;;
1402;SDS011;696;48.546;9.896;2024-01-16T06:20:59;0.90;;;0.90;;
1402;SDS011;696;48.546;9.896;2024-01-16T06:23:25;0.70;;;0.70;;
1402;SDS011;696;48.546;9.896;2024-01-16T06:25:50;0.80;;;0.80;;
1402;SDS011;696;48.546;9.896;2024-01-16T06:28:15;0.90;;;0.90;;
1402;SDS011;696;48.546;9.896;2024-01-16T06:30:40;0.80;;;0.80;;
1402;SDS011;696;48.546;9.896;2024-01-16T06:33:06;0.70;;;0.70;;
1402;SDS011;696;48.546;9.896;2024-01-16T06:35:31;0.80;;;0.80;;
1402;SDS011;696;48.546;9.896;2024-01-16T06:37:56;0.70;;;0.70;;
1402;SDS011;696;48.546;9.896;2024-01-16T06:40:23;0.93;;;0.93;;
1402;SDS011;696;48.546;9.896;2024-01-16T06:42:48;1.00;;;1.00;;
1402;SDS011;696;48.546;9.896;2024-01-16T06:45:14;0.90;;;0.90;;
1402;SDS011;696;48.546;9.896;2024-01-16T06:47:40;0.77;;;0.77;;
1402;SDS011;696;48.546;9.896;2024-01-16T06:50:07;0.80;;;0.80;;
1402;SDS011;696;48.546;9.896;2024-01-16T06:52:34;0.80;;;0.80;;
1402;SDS011;696;48.546;9.896;2024-01-16T06:54:59;0.70;;;0.70;;
1402;SDS011;696;48.546;9.896;2024-01-16T06:57:25;0.70;;;0.70;;
1402;SDS011;696;48.546;9.896;2024-01-16T06:59:50;0.77;;;0.77;;
1402;SDS011;696;48.546;9.896;2024-01-16T07:02:16;0.70;;;0.70;;
1402;SDS011;696;48.546;9.896;2024-01-16T07:04:41;0.70;;;0.70;;
1402;SDS011;696;48.546;9.896;2024-01-16T07:07:07;0.80;;;0.80;;
1402;SDS011;696;48.546;9.896;2024-01-16T07:09:32;0.65;;;0.65;;
1402;SDS011;696;48.546;9.896;2024-01-16T07:11:58;0.90;;;0.90;;
1402;SDS011;696;48.546;9.896;2024-01-16T07:14:23;0.80;;;0.80;;
1402;SDS011;696;48.546;9.896;2024-01-16T07:16:49;0.80;;;0.80;;
1402;SDS011;696;48.546;9.896;2024-01-16T07:19:14;0.70;;;0.70;;
1402;SDS011;696;48.546;9.896;2024-01-16T07:21:40;0.73;;;0.73;;
1402;SDS011;696;48.546;9.896;2024-01-16T07:24:05;0.80;;;0.80;;
1402;SDS011;696;48.546;9.896;2024-01-16T07:26:31;0.80;;;0.80;;
1402;SDS011;696;48.546;9.896;2024-01-16T07:28:56;0.80;;;0.80;;
1402;SDS011;696;48.546;9.896;2024-01-16T07:31:22;0.85;;;0.85;;
1402;SDS011;696;48.546;9.896;2024-01-16T07:33:48;0.80;;;0.80;;
1402;SDS011;696;48.546;9.896;2024-01-16T07:36:13;0.80;;;0.80;;
1402;SDS011;696;48.546;9.896;2024-01-16T07:38:38;0.73;;;0.73;;
1402;SDS011;696;48.546;9.896;2024-01-16T07:41:04;0.75;;;0.75;;
1402;SDS011;696;48.546;9.896;2024-01-16T07:43:30;0.70;;;0.70;;
1402;SDS011;696;48.546;9.896;2024-01-16T07:45:56;0.70;;;0.70;;
1402;SDS011;696;48.546;9.896;2024-01-16T07:48:21;0.80;;;0.80;;
1402;SDS011;696;48.546;9.896;2024-01-16T07:50:48;0.70;;;0.70;;
1402;SDS011;696;48.546;9.896;2024-01-16T07:53:13;0.80;;;0.80;;
1402;SDS011;696;48.546;9.896;2024-01-16T07:55:40;0.77;;;0.77;;
1402;SDS011;696;48.546;9.896;2024-01-16T07:58:05;0.80;;;0.80;;
1402;SDS011;696;48.546;9.896;2024-01-16T08:00:31;0.70;;;0.70;;
1402;SDS011;696;48.546;9.896;2024-01-16T08:02:56;0.77;;;0.77;;
1402;SDS011;696;48.546;9.896;2024-01-16T08:05:22;0.70;;;0.70;;
1402;SDS011;696;48.546;9.896;2024-01-16T08:07:50;0.80;;;0.80;;
1402;SDS011;696;48.546;9.896;2024-01-16T08:10:16;0.70;;;0.70;;
1402;SDS011;696;48.546;9.896;2024-01-16T08:12:41;0.70;;;0.70;;
1402;SDS011;696;48.546;9.896;2024-01-16T08:15:06;0.82;;;0.82;;
1402;SDS011;696;48.546;9.896;2024-01-16T08:17:32;0.80;;;0.80;;
1402;SDS011;696;48.546;9.896;2024-01-16T08:19:58;0.70;;;0.70;;
1402;SDS011;696;48.546;9.896;2024-01-16T08:22:24;0.75;;;0.75;;
1402;SDS011;696;48.546;9.896;2024-01-16T08:24:49;0.70;;;0.70;;
1402;SDS011;696;48.546;9.896;2024-01-16T08:27:15;0.80;;;0.80;;
1402;SDS011;696;48.546;9.896;2024-01-16T08:29:41;0.70;;;0.70;;
1402;SDS011;696;48.546;9.896;2024-01-16T08:32:07;0.60;;;0.60;;
1402;SDS011;696;48.546;9.896;2024-01-16T08:34:32;0.60;;;0.60;;
1402;SDS011;696;48.546;9.896;2024-01-16T08:36:58;0.70;;;0.70;;
1402;SDS011;696;48.546;9.896;2024-01-16T08:39:23;0.80;;;0.80;;
1402;SDS011;696;48.546;9.896;2024-01-16T08:41:52;0.63;;;0.63;;
1402;SDS011;696;48.546;9.896;2024-01-16T08:44:18;0.68;;;0.68;;
1402;SDS011;696;48.546;9.896;2024-01-16T08:46:43;0.70;;;0.70;;
1402;SDS011;696;48.546;9.896;2024-01-16T08:49:09;0.70;;;0.70;;
1402;SDS011;696;48.546;9.896;2024-01-16T08:51:36;0.70;;;0.70;;
1402;SDS011;696;48.546;9.896;2024-01-16T08:54:02;0.70;;;0.70;;
1402;SDS011;696;48.546;9.896;2024-01-16T08:56:27;0.60;;;0.60;;
1402;SDS011;696;48.546;9.896;2024-01-16T08:58:53;0.63;;;0.63;;
1402;SDS011;696;48.546;9.896;2024-01-16T09:01:18;0.68;;;0.68;;
1402;SDS011;696;48.546;9.896;2024-01-16T09:03:43;0.60;;;0.60;;
1402;SDS011;696;48.546;9.896;2024-01-16T09:06:09;0.50;;;0.50;;
1402;SDS011;696;48.546;9.896;2024-01-16T09:08:35;0.60;;;0.60;;
1402;SDS011;696;48.546;9.896;2024-01-16T09:11:00;0.65;;;0.65;;
1402;SDS011;696;48.546;9.896;2024-01-16T09:13:26;0.60;;;0.60;;
1402;SDS011;696;48.546;9.896;2024-01-16T09:15:51;0.60;;;0.60;;
1402;SDS011;696;48.546;9.896;2024-01-16T09:18:16;0.60;;;0.60;;
1402;SDS011;696;48.546;9.896;2024-01-16T09:20:42;0.55;;;0.55;;
1402;SDS011;696;48.546;9.896;2024-01-16T09:23:08;0.70;;;0.70;;
1402;SDS011;696;48.546;9.896;2024-01-16T09:25:36;0.60;;;0.60;;
1402;SDS011;696;48.546;9.896;2024-01-16T09:28:01;0.60;;;0.60;;
1402;SDS011;696;48.546;9.896;2024-01-16T09:30:27;0.60;;;0.60;;
1402;SDS011;696;48.546;9.896;2024-01-16T09:32:52;0.60;;;0.60;;
1402;SDS011;696;48.546;9.896;2024-01-16T09:35:18;0.60;;;0.60;;
1402;SDS011;696;48.546;9.896;2024-01-16T09:37:43;0.60;;;0.60;;
1402;SDS011;696;48.546;9.896;2024-01-16T09:40:09;0.55;;;0.55;;
1402;SDS011;696;48.546;9.896;2024-01-16T09:42:34;0.60;;;0.60;;
1402;SDS011;696;48.546;9.896;2024-01-16T09:45:00;0.50;;;0.50;;
1402;SDS011;696;48.546;9.896;2024-01-16T09:47:25;0.50;;;0.50;;
1402;SDS011;696;48.546;9.896;2024-01-16T09:49:52;0.40;;;0.40;;
1402;SDS011;696;48.546;9.896;2024-01-16T09:52:17;0.57;;;0.57;;
1402;SDS011;696;48.546;9.896;2024-01-16T09:54:43;0.52;;;0.52;;
1402;SDS011;696;48.546;9.896;2024-01-16T09:57:08;0.40;;;0.40;;
1402;SDS011;696;48.546;9.896;2024-01-16T09:59:37;0.52;;;0.52;;
1402;SDS011;696;48.546;9.896;2024-01-16T10:02:04;0.50;;;0.50;;
1402;SDS011;696;48.546;9.896;2024-01-16T10:04:32;0.50;;;0.50;;
1402;SDS011;696;48.546;9.896;2024-01-16T10:06:58;0.50;;;0.50;;
1402;SDS011;696;48.546;9.896;2024-01-16T10:09:26;0.50;;;0.50;;
1402;SDS011;696;48.546;9.896;2024-01-16T10:11:51;0.50;;;0.50;;
1402;SDS011;696;48.546;9.896;2024-01-16T10:14:17;0.40;;;0.40;;
1402;SDS011;696;48.546;9.896;2024-01-16T10:19:27;0.40;;;0.40;;
1402;SDS011;696;48.546;9.896;2024-01-16T10:22:04;0.43;;;0.43;;
1402;SDS011;696;48.546;9.896;2024-01-16T10:24:30;0.50;;;0.50;;
1402;SDS011;696;48.546;9.896;2024-01-16T10:26:59;0.47;;;0.47;;
1402;SDS011;696;48.546;9.896;2024-01-16T10:29:28;0.50;;;0.50;;
1402;SDS011;696;48.546;9.896;2024-01-16T10:31:54;0.43;;;0.43;;
1402;SDS011;696;48.546;9.896;2024-01-16T10:34:20;0.35;;;0.35;;
1402;SDS011;696;48.546;9.896;2024-01-16T10:36:46;0.40;;;0.40;;
1402;SDS011;696;48.546;9.896;2024-01-16T10:39:14;0.50;;;0.50;;
1402;SDS011;696;48.546;9.896;2024-01-16T10:41:40;0.50;;;0.50;;
1402;SDS011;696;48.546;9.896;2024-01-16T10:44:06;0.40;;;0.40;;
1402;SDS011;696;48.546;9.896;2024-01-16T10:46:32;0.40;;;0.40;;
1402;SDS011;696;48.546;9.896;2024-01-16T10:49:04;0.40;;;0.40;;
1402;SDS011;696;48.546;9.896;2024-01-16T10:51:30;0.40;;;0.40;;
1402;SDS011;696;48.546;9.896;2024-01-16T10:53:59;0.40;;;0.40;;
1402;SDS011;696;48.546;9.896;2024-01-16T10:56:29;0.40;;;0.40;;
1402;SDS011;696;48.546;9.896;2024-01-16T10:58:59;0.40;;;0.40;;
1402;SDS011;696;48.546;9.896;2024-01-16T11:01:47;0.40;;;0.40;;
1402;SDS011;696;48.546;9.896;2024-01-16T11:04:15;0.40;;;0.40;;
1402;SDS011;696;48.546;9.896;2024-01-16T11:06:41;0.40;;;0.40;;
1402;SDS011;696;48.546;9.896;2024-01-16T11:09:07;0.40;;;0.40;;
1402;SDS011;696;48.546;9.896;2024-01-16T11:11:33;0.38;;;0.38;;
1402;SDS011;696;48.546;9.896;2024-01-16T11:13:59;0.30;;;0.30;;
1402;SDS011;696;48.546;9.896;2024-01-16T11:16:24;0.30;;;0.30;;
1402;SDS011;696;48.546;9.896;2024-01-16T11:18:50;0.40;;;0.40;;
1402;SDS011;696;48.546;9.896;2024-01-16T11:21:16;0.40;;;0.40;;
1402;SDS011;696;48.546;9.896;2024-01-16T11:23:41;0.40;;;0.40;;
1402;SDS011;696;48.546;9.896;2024-01-16T11:26:25;0.40;;;0.40;;
1402;SDS011;696;48.546;9.896;2024-01-16T11:28:57;0.38;;;0.38;;
1402;SDS011;696;48.546;9.896;2024-01-16T11:33:52;0.30;;;0.30;;
1402;SDS011;696;48.546;9.896;2024-01-16T11:39:16;0.32;;;0.32;;
1402;SDS011;696;48.546;9.896;2024-01-16T11:44:36;0.30;;;0.30;;
1402;SDS011;696;48.546;9.896;2024-01-16T11:47:06;0.40;;;0.40;;
1402;SDS011;696;48.546;9.896;2024-01-16T11:49:32;0.40;;;0.40;;
1402;SDS011;696;48.546;9.896;2024-01-16T11:51:58;0.30;;;0.30;;
1402;SDS011;696;48.546;9.896;2024-01-16T11:54:24;0.40;;;0.40;;
1402;SDS011;696;48.546;9.896;2024-01-16T12:00:01;0.40;;;0.40;;
1402;SDS011;696;48.546;9.896;2024-01-16T12:02:48;0.40;;;0.40;;
1402;SDS011;696;48.546;9.896;2024-01-16T12:05:15;0.40;;;0.40;;
1402;SDS011;696;48.546;9.896;2024-01-16T12:07:45;0.45;;;0.45;;
1402;SDS011;696;48.546;9.896;2024-01-16T12:10:21;0.40;;;0.40;;
1402;SDS011;696;48.546;9.896;2024-01-16T12:12:48;0.40;;;0.40;;
1402;SDS011;696;48.546;9.896;2024-01-16T12:15:15;0.40;;;0.40;;
1402;SDS011;696;48.546;9.896;2024-01-16T12:18:01;0.40;;;0.40;;
1402;SDS011;696;48.546;9.896;2024-01-16T12:20:32;0.43;;;0.43;;
1402;SDS011;696;48.546;9.896;2024-01-16T12:23:05;0.35;;;0.35;;
1402;SDS011;696;48.546;9.896;2024-01-16T12:25:34;0.30;;;0.30;;
1402;SDS011;696;48.546;9.896;2024-01-16T12:28:01;0.40;;;0.40;;
1402;SDS011;696;48.546;9.896;2024-01-16T12:30:29;0.30;;;0.30;;
1402;SDS011;696;48.546;9.896;2024-01-16T12:33:05;0.30;;;0.30;;
1402;SDS011;696;48.546;9.896;2024-01-16T12:35:37;0.35;;;0.35;;
1402;SDS011;696;48.546;9.896;2024-01-16T12:38:04;0.30;;;0.30;;
1402;SDS011;696;48.546;9.896;2024-01-16T12:40:36;0.40;;;0.40;;
1402;SDS011;696;48.546;9.896;2024-01-16T12:43:05;0.30;;;0.30;;
1402;SDS011;696;48.546;9.896;2024-01-16T12:45:31;0.30;;;0.30;;
1402;SDS011;696;48.546;9.896;2024-01-16T12:47:57;0.30;;;0.30;;
1402;SDS011;696;48.546;9.896;2024-01-16T12:50:24;0.30;;;0.30;;
1402;SDS011;696;48.546;9.896;2024-01-16T12:55:29;0.32;;;0.32;;
1402;SDS011;696;48.546;9.896;2024-01-16T12:58:17;0.20;;;0.20;;
1402;SDS011;696;48.546;9.896;2024-01-16T13:00:49;0.30;;;0.30;;
1402;SDS011;696;48.546;9.896;2024-01-16T13:03:16;0.30;;;0.30;;
1402;SDS011;696;48.546;9.896;2024-01-16T13:05:45;0.30;;;0.30;;
1402;SDS011;696;48.546;9.896;2024-01-16T13:08:18;0.30;;;0.30;;
1402;SDS011;696;48.546;9.896;2024-01-16T13:10:45;0.30;;;0.30;;
1402;SDS011;696;48.546;9.896;2024-01-16T13:13:12;0.30;;;0.30;;
1402;SDS011;696;48.546;9.896;2024-01-16T13:15:42;0.30;;;0.30;;
1402;SDS011;696;48.546;9.896;2024-01-16T13:18:21;0.30;;;0.30;;
1402;SDS011;696;48.546;9.896;2024-01-16T13:20:49;0.40;;;0.40;;
1402;SDS011;696;48.546;9.896;2024-01-16T13:23:15;0.30;;;0.30;;
1402;SDS011;696;48.546;9.896;2024-01-16T13:25:42;0.30;;;0.30;;
1402;SDS011;696;48.546;9.896;2024-01-16T13:28:08;0.30;;;0.30;;
1402;SDS011;696;48.546;9.896;2024-01-16T13:30:33;0.30;;;0.30;;
1402;SDS011;696;48.546;9.896;2024-01-16T13:32:59;0.30;;;0.30;;
1402;SDS011;696;48.546;9.896;2024-01-16T13:35:24;0.30;;;0.30;;
1402;SDS011;696;48.546;9.896;2024-01-16T13:37:49;0.30;;;0.30;;
1402;SDS011;696;48.546;9.896;2024-01-16T13:40:15;0.30;;;0.30;;
1402;SDS011;696;48.546;9.896;2024-01-16T13:42:43;0.30;;;0.30;;
1402;SDS011;696;48.546;9.896;2024-01-16T13:45:09;0.40;;;0.40;;
1402;SDS011;696;48.546;9.896;2024-01-16T13:47:34;0.40;;;0.40;;
1402;SDS011;696;48.546;9.896;2024-01-16T13:50:04;0.38;;;0.38;;
1402;SDS011;696;48.546;9.896;2024-01-16T13:52:30;0.40;;;0.40;;
1402;SDS011;696;48.546;9.896;2024-01-16T13:54:55;0.40;;;0.40;;
1402;SDS011;696;48.546;9.896;2024-01-16T13:57:22;0.40;;;0.40;;
1402;SDS011;696;48.546;9.896;2024-01-16T13:59:47;0.40;;;0.40;;
1402;SDS011;696;48.546;9.896;2024-01-16T14:02:13;0.30;;;0.30;;
1402;SDS011;696;48.546;9.896;2024-01-16T14:04:38;0.30;;;0.30;;
1402;SDS011;696;48.546;9.896;2024-01-16T14:07:03;0.30;;;0.30;;
1402;SDS011;696;48.546;9.896;2024-01-16T14:09:32;0.40;;;0.40;;
1402;SDS011;696;48.546;9.896;2024-01-16T14:12:01;0.30;;;0.30;;
1402;SDS011;696;48.546;9.896;2024-01-16T14:14:26;0.30;;;0.30;;
1402;SDS011;696;48.546;9.896;2024-01-16T14:16:52;0.40;;;0.40;;
1402;SDS011;696;48.546;9.896;2024-01-16T14:19:19;0.40;;;0.40;;
1402;SDS011;696;48.546;9.896;2024-01-16T14:21:44;0.40;;;0.40;;
1402;SDS011;696;48.546;9.896;2024-01-16T14:24:12;0.30;;;0.30;;
1402;SDS011;696;48.546;9.896;2024-01-16T14:26:37;0.40;;;0.40;;
1402;SDS011;696;48.546;9.896;2024-01-16T14:29:02;0.30;;;0.30;;
1402;SDS011;696;48.546;9.896;2024-01-16T14:31:28;0.30;;;0.30;;
1402;SDS011;696;48.546;9.896;2024-01-16T14:33:53;0.40;;;0.40;;
1402;SDS011;696;48.546;9.896;2024-01-16T14:36:18;0.30;;;0.30;;
1402;SDS011;696;48.546;9.896;2024-01-16T14:38:44;0.30;;;0.30;;
1402;SDS011;696;48.546;9.896;2024-01-16T14:41:10;0.40;;;0.40;;
1402;SDS011;696;48.546;9.896;2024-01-16T14:43:37;0.40;;;0.40;;
1402;SDS011;696;48.546;9.896;2024-01-16T14:46:02;0.40;;;0.40;;
1402;SDS011;696;48.546;9.896;2024-01-16T14:48:28;0.40;;;0.40;;
1402;SDS011;696;48.546;9.896;2024-01-16T14:50:54;0.50;;;0.50;;
1402;SDS011;696;48.546;9.896;2024-01-16T14:53:20;0.50;;;0.50;;
1402;SDS011;696;48.546;9.896;2024-01-16T14:55:46;0.45;;;0.45;;
1402;SDS011;696;48.546;9.896;2024-01-16T14:58:11;0.40;;;0.40;;
1402;SDS011;696;48.546;9.896;2024-01-16T15:00:37;0.45;;;0.45;;
1402;SDS011;696;48.546;9.896;2024-01-16T15:03:02;0.43;;;0.43;;
1402;SDS011;696;48.546;9.896;2024-01-16T15:05:28;0.40;;;0.40;;
1402;SDS011;696;48.546;9.896;2024-01-16T15:07:53;0.40;;;0.40;;
1402;SDS011;696;48.546;9.896;2024-01-16T15:10:19;0.50;;;0.50;;
1402;SDS011;696;48.546;9.896;2024-01-16T15:12:45;0.50;;;0.50;;
1402;SDS011;696;48.546;9.896;2024-01-16T15:15:11;0.50;;;0.50;;
1402;SDS011;696;48.546;9.896;2024-01-16T15:17:38;0.50;;;0.50;;
1402;SDS011;696;48.546;9.896;2024-01-16T15:20:04;0.50;;;0.50;;
1402;SDS011;696;48.546;9.896;2024-01-16T15:22:33;0.60;;;0.60;;
1402;SDS011;696;48.546;9.896;2024-01-16T15:25:01;0.50;;;0.50;;
1402;SDS011;696;48.546;9.896;2024-01-16T15:27:27;0.50;;;0.50;;
1402;SDS011;696;48.546;9.896;2024-01-16T15:29:52;0.40;;;0.40;;
1402;SDS011;696;48.546;9.896;2024-01-16T15:32:20;0.47;;;0.47;;
1402;SDS011;696;48.546;9.896;2024-01-16T15:34:45;0.50;;;0.50;;
1402;SDS011;696;48.546;9.896;2024-01-16T15:37:12;0.50;;;0.50;;
1402;SDS011;696;48.546;9.896;2024-01-16T15:39:37;0.55;;;0.55;;
1402;SDS011;696;48.546;9.896;2024-01-16T15:42:02;0.50;;;0.50;;
1402;SDS011;696;48.546;9.896;2024-01-16T15:44:28;0.52;;;0.52;;
1402;SDS011;696;48.546;9.896;2024-01-16T15:46:57;0.60;;;0.60;;